Time,TemperatureF,DewpointF,PressureIn,WindDirection,WindDirectionDegrees,WindSpeedMPH,WindSpeedGustMPH,Humidity,HourlyPrecipIn,Conditions,Clouds,dailyrainin,SoftwareType,DateUTC
2013-05-21 00:00:00,72.0,70.0,30.01,SSE,157,6.0,10.0,94,0.00,,,0.00,Rainwise IP-100,2013-05-21 04:00:00,
2013-05-21 00:01:00,72.0,70.0,30.01,South,180,9.0,10.0,94,0.00,,,0.01,Rainwise IP-100,2013-05-21 04:01:00,
2013-05-21 00:06:00,72.0,70.0,30.00,SSE,157,6.0,9.0,94,0.06,,,0.01,Rainwise IP-100,2013-05-21 04:06:00,
2013-05-21 00:11:00,72.0,70.5,30.00,South,180,4.0,9.0,95,0.06,,,0.02,Rainwise IP-100,2013-05-21 04:11:00,
2013-05-21 00:16:00,72.0,70.5,29.99,SE,135,3.0,9.0,95,0.06,,,0.02,Rainwise IP-100,2013-05-21 04:16:00,
2013-05-21 00:21:00,72.0,70.0,29.99,SSE,157,8.0,10.0,94,0.00,,,0.02,Rainwise IP-100,2013-05-21 04:21:00,
2013-05-21 00:26:00,72.0,70.0,29.99,South,180,6.0,8.0,94,0.00,,,0.02,Rainwise IP-100,2013-05-21 04:26:00,
2013-05-21 00:31:00,73.0,70.5,29.99,SE,135,6.0,13.0,92,0.00,,,0.02,Rainwise IP-100,2013-05-21 04:31:00,
2013-05-21 00:37:00,73.0,70.5,29.99,South,180,7.0,13.0,91,0.00,,,0.02,Rainwise IP-100,2013-05-21 04:37:00,
2013-05-21 00:42:00,73.0,70.5,29.99,SSE,157,5.0,11.0,91,0.00,,,0.02,Rainwise IP-100,2013-05-21 04:42:00,
2013-05-21 00:47:00,73.0,70.5,30.00,SSW,202,4.0,9.0,92,0.00,,,0.02,Rainwise IP-100,2013-05-21 04:47:00,
2013-05-21 00:52:00,73.0,70.5,30.00,SSE,157,6.0,7.0,92,0.00,,,0.02,Rainwise IP-100,2013-05-21 04:52:00,
2013-05-21 00:57:00,73.0,70.5,29.99,South,180,6.0,9.0,92,0.00,,,0.02,Rainwise IP-100,2013-05-21 04:57:00,
2013-05-21 01:02:00,73.0,70.5,30.00,SE,135,7.0,13.0,91,0.00,,,0.02,Rainwise IP-100,2013-05-21 05:02:00,
2013-05-21 01:07:00,73.0,70.5,30.00,SE,135,4.0,9.0,91,0.00,,,0.02,Rainwise IP-100,2013-05-21 05:07:00,
2013-05-21 01:12:00,73.0,70.5,30.00,SE,135,6.0,10.0,91,0.00,,,0.02,Rainwise IP-100,2013-05-21 05:12:00,
2013-05-21 01:17:00,72.0,69.3,29.99,SE,135,5.0,8.0,91,0.00,,,0.02,Rainwise IP-100,2013-05-21 05:17:00,
2013-05-21 01:23:00,72.0,69.7,29.99,South,180,1.0,6.0,92,0.00,,,0.02,Rainwise IP-100,2013-05-21 05:23:00,
2013-05-21 01:28:00,72.0,69.3,29.98,ESE,112,9.0,11.0,91,0.00,,,0.02,Rainwise IP-100,2013-05-21 05:28:00,
2013-05-21 01:33:00,73.0,69.0,29.98,East,90,12.0,15.0,87,0.00,,,0.02,Rainwise IP-100,2013-05-21 05:33:00,
2013-05-21 01:38:00,73.0,69.3,29.97,SE,135,7.0,12.0,88,0.00,,,0.02,Rainwise IP-100,2013-05-21 05:38:00,
2013-05-21 01:43:00,73.0,69.7,29.97,SE,135,2.0,10.0,89,0.00,,,0.02,Rainwise IP-100,2013-05-21 05:43:00,
2013-05-21 01:48:00,73.0,70.0,29.97,SE,135,5.0,7.0,90,0.00,,,0.02,Rainwise IP-100,2013-05-21 05:48:00,
2013-05-21 01:53:00,73.0,69.7,29.96,East,90,3.0,8.0,89,0.00,,,0.02,Rainwise IP-100,2013-05-21 05:53:00,
2013-05-21 01:59:00,73.0,70.5,29.96,SE,135,5.0,7.0,91,0.00,,,0.02,Rainwise IP-100,2013-05-21 05:59:00,
2013-05-21 02:04:00,73.0,70.0,29.96,SE,135,1.0,9.0,90,0.00,,,0.02,Rainwise IP-100,2013-05-21 06:04:00,
2013-05-21 02:09:00,73.0,69.7,29.95,SE,135,7.0,9.0,89,0.00,,,0.02,Rainwise IP-100,2013-05-21 06:09:00,
2013-05-21 02:14:00,73.0,69.7,29.94,SE,135,6.0,9.0,89,0.00,,,0.02,Rainwise IP-100,2013-05-21 06:14:00,
2013-05-21 02:19:00,74.0,71.0,29.94,SE,135,3.0,10.0,89,0.00,,,0.02,Rainwise IP-100,2013-05-21 06:19:00,
2013-05-21 02:24:00,74.0,71.0,29.94,East,90,6.0,10.0,89,0.00,,,0.02,Rainwise IP-100,2013-05-21 06:24:00,
2013-05-21 02:29:00,74.0,71.3,29.94,SE,135,7.0,10.0,90,0.00,,,0.02,Rainwise IP-100,2013-05-21 06:29:00,
2013-05-21 02:34:00,74.0,71.3,29.94,ESE,112,3.0,9.0,90,0.00,,,0.02,Rainwise IP-100,2013-05-21 06:34:00,
2013-05-21 02:40:00,74.0,71.3,29.94,SE,135,3.0,10.0,91,0.00,,,0.02,Rainwise IP-100,2013-05-21 06:40:00,
2013-05-21 02:45:00,74.0,71.0,29.95,ESE,112,6.0,10.0,89,0.00,,,0.02,Rainwise IP-100,2013-05-21 06:45:00,
2013-05-21 02:50:00,74.0,71.0,29.94,East,90,4.0,11.0,89,0.00,,,0.02,Rainwise IP-100,2013-05-21 06:50:00,
2013-05-21 02:55:00,74.0,71.0,29.94,SE,135,6.0,11.0,89,0.00,,,0.02,Rainwise IP-100,2013-05-21 06:55:00,
2013-05-21 03:00:00,74.0,71.0,29.94,ENE,67,7.0,12.0,89,0.06,,,0.03,Rainwise IP-100,2013-05-21 07:00:00,
2013-05-21 03:05:00,73.0,69.0,29.94,East,90,8.0,15.0,86,0.06,,,0.03,Rainwise IP-100,2013-05-21 07:05:00,
2013-05-21 03:10:00,74.0,69.0,29.93,NE,45,8.0,20.0,84,0.00,,,0.03,Rainwise IP-100,2013-05-21 07:10:00,
2013-05-21 03:16:00,74.0,69.3,29.93,ENE,67,6.0,12.0,85,0.00,,,0.03,Rainwise IP-100,2013-05-21 07:16:00,
2013-05-21 03:21:00,74.0,69.3,29.93,NE,45,7.0,15.0,85,0.00,,,0.03,Rainwise IP-100,2013-05-21 07:21:00,
2013-05-21 03:26:00,74.0,69.3,29.93,NE,45,4.0,16.0,85,0.00,,,0.03,Rainwise IP-100,2013-05-21 07:26:00,
2013-05-21 03:31:00,74.0,69.3,29.93,East,90,4.0,15.0,85,0.00,,,0.03,Rainwise IP-100,2013-05-21 07:31:00,
2013-05-21 03:36:00,74.0,69.0,29.93,East,90,7.0,12.0,83,0.00,,,0.03,Rainwise IP-100,2013-05-21 07:36:00,
2013-05-21 03:41:00,74.0,70.0,29.93,East,90,7.0,13.0,87,0.00,,,0.03,Rainwise IP-100,2013-05-21 07:41:00,
2013-05-21 03:46:00,74.0,70.0,29.93,SE,135,7.0,12.0,87,0.00,,,0.03,Rainwise IP-100,2013-05-21 07:46:00,
2013-05-21 03:51:00,75.0,71.3,29.92,East,90,5.0,9.0,88,0.00,,,0.03,Rainwise IP-100,2013-05-21 07:51:00,
2013-05-21 03:57:00,75.0,70.0,29.92,SSE,157,8.0,13.0,84,0.00,,,0.03,Rainwise IP-100,2013-05-21 07:57:00,
2013-05-21 04:02:00,75.0,69.7,29.92,SE,135,7.0,12.0,83,0.00,,,0.03,Rainwise IP-100,2013-05-21 08:02:00,
2013-05-21 04:07:00,75.0,70.5,29.92,East,90,7.0,15.0,85,0.00,,,0.03,Rainwise IP-100,2013-05-21 08:07:00,
2013-05-21 04:12:00,75.0,71.0,29.92,East,90,3.0,10.0,86,0.00,,,0.03,Rainwise IP-100,2013-05-21 08:12:00,
2013-05-21 04:17:00,75.0,71.3,29.93,SSW,202,6.0,19.0,87,0.00,,,0.03,Rainwise IP-100,2013-05-21 08:17:00,
2013-05-21 04:22:00,74.0,70.0,29.93,SE,135,17.0,20.0,87,0.00,,,0.03,Rainwise IP-100,2013-05-21 08:22:00,
2013-05-21 04:27:00,73.0,69.0,29.92,SE,135,8.0,19.0,87,0.00,,,0.03,Rainwise IP-100,2013-05-21 08:27:00,
2013-05-21 04:33:00,73.0,69.0,29.92,SSE,157,4.0,16.0,87,0.00,,,0.03,Rainwise IP-100,2013-05-21 08:33:00,
2013-05-21 04:38:00,73.0,69.0,29.92,SE,135,6.0,14.0,87,0.00,,,0.03,Rainwise IP-100,2013-05-21 08:38:00,
2013-05-21 04:43:00,73.0,68.5,29.92,South,180,9.0,16.0,85,0.00,,,0.03,Rainwise IP-100,2013-05-21 08:43:00,
2013-05-21 04:48:00,73.0,68.5,29.93,South,180,6.0,16.0,85,0.00,,,0.03,Rainwise IP-100,2013-05-21 08:48:00,
2013-05-21 04:53:00,74.0,70.0,29.93,SE,135,12.0,21.0,87,0.00,,,0.03,Rainwise IP-100,2013-05-21 08:53:00,
2013-05-21 04:58:00,73.0,69.3,29.93,SSE,157,11.0,16.0,88,0.00,,,0.03,Rainwise IP-100,2013-05-21 08:58:00,
2013-05-21 05:03:00,73.0,69.7,29.93,ESE,112,13.0,18.0,89,0.00,,,0.03,Rainwise IP-100,2013-05-21 09:03:00,
2013-05-21 05:08:00,73.0,70.5,29.93,ESE,112,9.0,19.0,91,0.00,,,0.03,Rainwise IP-100,2013-05-21 09:08:00,
2013-05-21 05:14:00,73.0,69.3,29.93,South,180,6.0,13.0,88,0.00,,,0.03,Rainwise IP-100,2013-05-21 09:14:00,
2013-05-21 05:19:00,73.0,69.3,29.93,ESE,112,9.0,18.0,88,0.00,,,0.03,Rainwise IP-100,2013-05-21 09:19:00,
2013-05-21 05:24:00,73.0,69.0,29.93,ESE,112,11.0,16.0,87,0.00,,,0.03,Rainwise IP-100,2013-05-21 09:24:00,
2013-05-21 05:29:00,73.0,69.3,29.93,ESE,112,10.0,15.0,88,0.00,,,0.03,Rainwise IP-100,2013-05-21 09:29:00,
2013-05-21 05:34:00,73.0,69.3,29.93,East,90,3.0,13.0,88,0.00,,,0.03,Rainwise IP-100,2013-05-21 09:34:00,
2013-05-21 05:39:00,74.0,71.3,29.93,SE,135,6.0,13.0,90,0.00,,,0.03,Rainwise IP-100,2013-05-21 09:39:00,
2013-05-21 05:44:00,74.0,71.0,29.93,SE,135,7.0,15.0,89,0.00,,,0.03,Rainwise IP-100,2013-05-21 09:44:00,
2013-05-21 05:50:00,74.0,70.5,29.93,SE,135,8.0,16.0,88,0.00,,,0.03,Rainwise IP-100,2013-05-21 09:50:00,
2013-05-21 05:55:00,74.0,70.0,29.92,SE,135,16.0,16.0,87,0.00,,,0.03,Rainwise IP-100,2013-05-21 09:55:00,
2013-05-21 06:00:00,74.0,70.5,29.93,SE,135,4.0,16.0,88,0.00,,,0.03,Rainwise IP-100,2013-05-21 10:00:00,
2013-05-21 06:05:00,74.0,70.5,29.93,SE,135,5.0,15.0,88,0.00,,,0.03,Rainwise IP-100,2013-05-21 10:05:00,
2013-05-21 06:10:00,74.0,70.0,29.93,SE,135,9.0,15.0,87,0.00,,,0.03,Rainwise IP-100,2013-05-21 10:10:00,
2013-05-21 06:15:00,74.0,70.0,29.93,SE,135,7.0,10.0,87,0.00,,,0.03,Rainwise IP-100,2013-05-21 10:15:00,
2013-05-21 06:20:00,74.0,70.5,29.93,SE,135,6.0,8.0,88,0.00,,,0.03,Rainwise IP-100,2013-05-21 10:20:00,
2013-05-21 06:25:00,74.0,71.0,29.93,SSE,157,5.0,10.0,89,0.00,,,0.03,Rainwise IP-100,2013-05-21 10:25:00,
2013-05-21 06:31:00,74.0,71.0,29.94,SE,135,7.0,10.0,89,0.00,,,0.03,Rainwise IP-100,2013-05-21 10:31:00,
2013-05-21 06:36:00,74.0,70.5,29.94,SE,135,6.0,11.0,88,0.00,,,0.03,Rainwise IP-100,2013-05-21 10:36:00,
2013-05-21 06:41:00,74.0,70.5,29.94,ESE,112,3.0,10.0,88,0.00,,,0.03,Rainwise IP-100,2013-05-21 10:41:00,
2013-05-21 06:46:00,75.0,71.3,29.94,SE,135,4.0,11.0,88,0.00,,,0.03,Rainwise IP-100,2013-05-21 10:46:00,
2013-05-21 06:51:00,75.0,71.3,29.94,ESE,112,5.0,9.0,88,0.00,,,0.03,Rainwise IP-100,2013-05-21 10:51:00,
2013-05-21 06:53:00,75.0,71.3,29.94,ESE,112,6.0,9.0,87,0.00,,,0.03,Rainwise IP-100,2013-05-21 10:53:00,
2013-05-21 06:58:00,75.0,71.3,29.95,ENE,67,6.0,8.0,87,0.00,,,0.03,Rainwise IP-100,2013-05-21 10:58:00,
2013-05-21 07:03:00,75.0,71.7,29.96,NE,45,7.0,12.0,89,0.00,,,0.03,Rainwise IP-100,2013-05-21 11:03:00,
2013-05-21 07:09:00,75.0,72.0,29.96,NE,45,6.0,10.0,90,0.00,,,0.03,Rainwise IP-100,2013-05-21 11:09:00,
2013-05-21 07:14:00,75.0,72.0,29.96,East,90,4.0,11.0,90,0.00,,,0.03,Rainwise IP-100,2013-05-21 11:14:00,
2013-05-21 07:19:00,76.0,72.7,29.97,East,90,4.0,10.0,90,0.00,,,0.03,Rainwise IP-100,2013-05-21 11:19:00,
2013-05-21 07:24:00,76.0,72.7,29.97,East,90,2.0,9.0,90,0.00,,,0.03,Rainwise IP-100,2013-05-21 11:24:00,
2013-05-21 07:29:00,76.0,72.0,29.97,ENE,67,3.0,9.0,88,0.00,,,0.03,Rainwise IP-100,2013-05-21 11:29:00,
2013-05-21 07:34:00,76.0,71.3,29.98,SE,135,6.0,10.0,85,0.00,,,0.03,Rainwise IP-100,2013-05-21 11:34:00,
2013-05-21 07:39:00,76.0,71.0,29.98,SE,135,4.0,12.0,84,0.00,,,0.03,Rainwise IP-100,2013-05-21 11:39:00,
2013-05-21 07:44:00,76.0,71.0,29.98,SE,135,5.0,11.0,84,0.00,,,0.03,Rainwise IP-100,2013-05-21 11:44:00,
2013-05-21 07:50:00,77.0,71.7,29.98,SE,135,6.0,7.0,83,0.00,,,0.03,Rainwise IP-100,2013-05-21 11:50:00,
2013-05-21 07:55:00,78.0,72.7,29.98,East,90,4.0,8.0,84,0.00,,,0.03,Rainwise IP-100,2013-05-21 11:55:00,
2013-05-21 08:00:00,78.0,72.7,29.98,East,90,2.0,7.0,83,0.00,,,0.03,Rainwise IP-100,2013-05-21 12:00:00,
2013-05-21 08:05:00,78.0,72.7,29.98,East,90,10.0,10.0,83,0.00,,,0.03,Rainwise IP-100,2013-05-21 12:05:00,
2013-05-21 08:10:00,78.0,72.0,29.98,SE,135,15.0,15.0,81,0.00,,,0.03,Rainwise IP-100,2013-05-21 12:10:00,
2013-05-21 08:15:00,75.0,71.0,29.98,SSE,157,17.0,23.0,86,0.00,,,0.04,Rainwise IP-100,2013-05-21 12:15:00,
2013-05-21 08:20:00,73.0,69.7,30.00,SSE,157,9.0,23.0,89,1.38,,,0.31,Rainwise IP-100,2013-05-21 12:20:00,
2013-05-21 08:26:00,71.0,68.5,30.00,ESE,112,4.0,19.0,92,3.06,,,0.58,Rainwise IP-100,2013-05-21 12:26:00,
2013-05-21 08:31:00,71.0,69.0,30.00,East,90,5.0,18.0,94,2.58,,,0.70,Rainwise IP-100,2013-05-21 12:31:00,
2013-05-21 08:36:00,70.0,69.0,30.00,ESE,112,2.0,13.0,96,1.62,,,0.86,Rainwise IP-100,2013-05-21 12:36:00,
2013-05-21 08:41:00,70.0,69.0,30.00,East,90,5.0,9.0,96,1.74,,,0.99,Rainwise IP-100,2013-05-21 12:41:00,
2013-05-21 08:46:00,70.0,69.3,29.99,NE,45,7.0,9.0,97,0.96,,,1.03,Rainwise IP-100,2013-05-21 12:46:00,
2013-05-21 08:51:00,70.0,69.3,29.99,NE,45,9.0,12.0,97,0.36,,,1.05,Rainwise IP-100,2013-05-21 12:51:00,
2013-05-21 08:56:00,71.0,70.0,29.98,NE,45,9.0,10.0,98,0.54,,,1.13,Rainwise IP-100,2013-05-21 12:56:00,
2013-05-21 09:01:00,71.0,70.0,29.98,NE,45,6.0,9.0,97,0.72,,,1.18,Rainwise IP-100,2013-05-21 13:01:00,
2013-05-21 09:07:00,72.0,71.3,29.98,North,360,3.0,8.0,97,0.48,,,1.20,Rainwise IP-100,2013-05-21 13:07:00,
2013-05-21 09:12:00,72.0,71.3,29.98,NE,45,5.0,7.0,97,0.18,,,1.20,Rainwise IP-100,2013-05-21 13:12:00,
2013-05-21 09:17:00,72.0,71.3,29.98,ENE,67,2.0,6.0,97,0.06,,,1.21,Rainwise IP-100,2013-05-21 13:17:00,
2013-05-21 09:22:00,73.0,72.3,29.98,ESE,112,1.0,5.0,97,0.06,,,1.21,Rainwise IP-100,2013-05-21 13:22:00,
2013-05-21 09:27:00,73.0,72.3,29.97,SE,135,0.0,4.0,97,0.00,,,1.21,Rainwise IP-100,2013-05-21 13:27:00,
2013-05-21 09:32:00,73.0,72.3,29.98,ENE,67,0.0,3.0,97,0.00,,,1.21,Rainwise IP-100,2013-05-21 13:32:00,
2013-05-21 09:37:00,74.0,73.3,29.98,ESE,112,3.0,6.0,98,0.00,,,1.21,Rainwise IP-100,2013-05-21 13:37:00,
2013-05-21 09:43:00,75.0,74.7,29.98,South,180,3.0,6.0,99,0.00,,,1.21,Rainwise IP-100,2013-05-21 13:43:00,
2013-05-21 09:48:00,76.0,75.5,29.98,SW,225,2.0,6.0,99,0.00,,,1.21,Rainwise IP-100,2013-05-21 13:48:00,
2013-05-21 09:53:00,78.0,78.0,29.99,SSE,157,0.0,3.0,100,0.00,,,1.21,Rainwise IP-100,2013-05-21 13:53:00,
2013-05-21 09:58:00,79.0,79.0,30.00,South,180,6.0,6.0,100,0.00,,,1.21,Rainwise IP-100,2013-05-21 13:58:00,
2013-05-21 10:03:00,79.0,78.7,30.00,East,90,3.0,7.0,99,0.00,,,1.21,Rainwise IP-100,2013-05-21 14:03:00,
2013-05-21 10:08:00,78.0,77.0,30.00,ESE,112,3.0,8.0,97,0.00,,,1.21,Rainwise IP-100,2013-05-21 14:08:00,
2013-05-21 10:13:00,78.0,76.0,30.00,ESE,112,2.0,7.0,93,0.00,,,1.21,Rainwise IP-100,2013-05-21 14:13:00,
2013-05-21 10:18:00,78.0,74.3,30.01,ENE,67,2.0,6.0,89,0.00,,,1.21,Rainwise IP-100,2013-05-21 14:18:00,
2013-05-21 10:24:00,79.0,74.7,30.02,SE,135,0.0,7.0,87,0.00,,,1.21,Rainwise IP-100,2013-05-21 14:24:00,
2013-05-21 10:29:00,79.0,73.0,30.02,South,180,2.0,8.0,82,0.00,,,1.21,Rainwise IP-100,2013-05-21 14:29:00,
2013-05-21 10:34:00,78.0,71.3,30.02,SE,135,7.0,10.0,79,0.00,,,1.21,Rainwise IP-100,2013-05-21 14:34:00,
2013-05-21 10:39:00,78.0,72.7,30.02,SSE,157,2.0,9.0,83,0.00,,,1.21,Rainwise IP-100,2013-05-21 14:39:00,
2013-05-21 10:44:00,78.0,72.0,30.02,SE,135,6.0,7.0,81,0.00,,,1.21,Rainwise IP-100,2013-05-21 14:44:00,
2013-05-21 10:49:00,78.0,72.0,30.02,East,90,2.0,7.0,81,0.00,,,1.21,Rainwise IP-100,2013-05-21 14:49:00,
2013-05-21 10:54:00,79.0,72.0,30.02,East,90,5.0,6.0,79,0.00,,,1.21,Rainwise IP-100,2013-05-21 14:54:00,
2013-05-21 11:00:00,80.0,72.7,30.02,NE,45,7.0,7.0,79,0.00,,,1.21,Rainwise IP-100,2013-05-21 15:00:00,
2013-05-21 11:05:00,81.0,72.3,30.02,East,90,3.0,7.0,75,0.00,,,1.21,Rainwise IP-100,2013-05-21 15:05:00,
2013-05-21 11:10:00,82.0,72.7,30.02,NE,45,3.0,7.0,74,0.00,,,1.21,Rainwise IP-100,2013-05-21 15:10:00,
2013-05-21 11:15:00,83.0,72.0,30.03,East,90,6.0,10.0,69,0.00,,,1.21,Rainwise IP-100,2013-05-21 15:15:00,
2013-05-21 11:20:00,82.0,72.0,30.04,NE,45,7.0,8.0,72,0.00,,,1.21,Rainwise IP-100,2013-05-21 15:20:00,
2013-05-21 11:22:00,82.0,72.0,30.04,ENE,67,5.0,8.0,72,0.00,,,1.21,Rainwise IP-100,2013-05-21 15:22:00,
2013-05-21 11:28:00,79.0,69.0,30.04,SE,135,13.0,13.0,71,0.00,,,1.21,Rainwise IP-100,2013-05-21 15:28:00,
2013-05-21 11:33:00,76.0,67.5,30.04,ESE,112,9.0,14.0,76,0.00,,,1.21,Rainwise IP-100,2013-05-21 15:33:00,
2013-05-21 11:38:00,77.0,71.0,30.03,NE,45,13.0,19.0,81,0.00,,,1.21,Rainwise IP-100,2013-05-21 15:38:00,
2013-05-21 11:43:00,75.0,70.5,30.02,East,90,6.0,18.0,85,0.06,,,1.22,Rainwise IP-100,2013-05-21 15:43:00,
2013-05-21 11:48:00,73.0,69.0,30.02,East,90,15.0,16.0,87,0.06,,,1.22,Rainwise IP-100,2013-05-21 15:48:00,
2013-05-21 11:53:00,72.0,67.5,30.02,NE,45,5.0,17.0,86,0.00,,,1.22,Rainwise IP-100,2013-05-21 15:53:00,
2013-05-21 11:58:00,72.0,69.3,30.01,ENE,67,10.0,20.0,91,0.24,,,1.27,Rainwise IP-100,2013-05-21 15:58:00,
2013-05-21 12:04:00,71.0,69.3,30.01,East,90,10.0,19.0,95,0.60,,,1.32,Rainwise IP-100,2013-05-21 16:04:00,
2013-05-21 12:09:00,71.0,69.7,30.01,ENE,67,9.0,19.0,96,0.78,,,1.39,Rainwise IP-100,2013-05-21 16:09:00,
2013-05-21 12:14:00,70.0,69.3,30.00,East,90,12.0,17.0,97,0.90,,,1.48,Rainwise IP-100,2013-05-21 16:14:00,
2013-05-21 12:19:00,70.0,69.3,29.99,ENE,67,14.0,17.0,97,0.60,,,1.49,Rainwise IP-100,2013-05-21 16:19:00,
2013-05-21 12:24:00,71.0,69.7,29.99,ENE,67,6.0,14.0,96,0.06,,,1.49,Rainwise IP-100,2013-05-21 16:24:00,
2013-05-21 12:29:00,72.0,71.0,29.99,East,90,6.0,12.0,96,0.00,,,1.49,Rainwise IP-100,2013-05-21 16:29:00,
2013-05-21 12:34:00,73.0,72.3,29.98,ENE,67,5.0,13.0,97,0.00,,,1.49,Rainwise IP-100,2013-05-21 16:34:00,
2013-05-21 12:39:00,73.0,72.3,29.99,NE,45,12.0,12.0,97,0.00,,,1.49,Rainwise IP-100,2013-05-21 16:39:00,
2013-05-21 12:45:00,73.0,71.0,29.99,ENE,67,2.0,13.0,93,0.00,,,1.49,Rainwise IP-100,2013-05-21 16:45:00,
2013-05-21 12:50:00,74.0,71.0,29.99,ENE,67,6.0,10.0,89,0.00,,,1.49,Rainwise IP-100,2013-05-21 16:50:00,
2013-05-21 12:55:00,74.0,68.5,30.00,NE,45,1.0,10.0,82,0.00,,,1.49,Rainwise IP-100,2013-05-21 16:55:00,
2013-05-21 13:00:00,74.0,67.5,29.99,East,90,6.0,9.0,80,0.00,,,1.49,Rainwise IP-100,2013-05-21 17:00:00,
2013-05-21 13:05:00,75.0,68.5,29.99,SE,135,12.0,12.0,80,0.00,,,1.49,Rainwise IP-100,2013-05-21 17:05:00,
2013-05-21 13:10:00,75.0,70.5,30.00,SE,135,9.0,19.0,85,0.00,,,1.49,Rainwise IP-100,2013-05-21 17:10:00,
2013-05-21 13:15:00,73.0,68.0,29.99,South,180,6.0,20.0,84,0.00,,,1.49,Rainwise IP-100,2013-05-21 17:15:00,
2013-05-21 13:21:00,73.0,69.0,29.99,SSE,157,3.0,14.0,87,0.00,,,1.49,Rainwise IP-100,2013-05-21 17:21:00,
2013-05-21 13:26:00,73.0,69.0,29.98,ESE,112,3.0,15.0,87,0.00,,,1.49,Rainwise IP-100,2013-05-21 17:26:00,
2013-05-21 13:31:00,73.0,68.5,29.98,SE,135,7.0,12.0,85,0.00,,,1.49,Rainwise IP-100,2013-05-21 17:31:00,
2013-05-21 13:36:00,73.0,69.3,29.98,East,90,5.0,9.0,88,0.00,,,1.49,Rainwise IP-100,2013-05-21 17:36:00,
2013-05-21 13:41:00,74.0,70.0,29.97,South,180,2.0,9.0,87,0.00,,,1.49,Rainwise IP-100,2013-05-21 17:41:00,
2013-05-21 13:46:00,75.0,71.7,29.97,NE,45,5.0,9.0,89,0.00,,,1.49,Rainwise IP-100,2013-05-21 17:46:00,
2013-05-21 13:51:00,76.0,72.0,29.96,NE,45,4.0,8.0,88,0.00,,,1.49,Rainwise IP-100,2013-05-21 17:51:00,
2013-05-21 13:56:00,77.0,71.0,29.95,NE,45,4.0,9.0,81,0.00,,,1.49,Rainwise IP-100,2013-05-21 17:56:00,
2013-05-21 14:02:00,78.0,69.3,29.96,NE,45,1.0,7.0,74,0.00,,,1.49,Rainwise IP-100,2013-05-21 18:02:00,
2013-05-21 14:07:00,79.0,70.0,29.96,ENE,67,5.0,9.0,74,0.00,,,1.49,Rainwise IP-100,2013-05-21 18:07:00,
2013-05-21 14:12:00,79.0,69.3,29.96,East,90,4.0,9.0,72,0.00,,,1.49,Rainwise IP-100,2013-05-21 18:12:00,
2013-05-21 14:17:00,79.0,67.5,29.96,East,90,7.0,7.0,68,0.00,,,1.49,Rainwise IP-100,2013-05-21 18:17:00,
2013-05-21 14:22:00,80.0,69.0,29.97,East,90,9.0,9.0,69,0.00,,,1.49,Rainwise IP-100,2013-05-21 18:22:00,
2013-05-21 14:27:00,80.0,69.0,29.97,East,90,7.0,9.0,69,0.00,,,1.49,Rainwise IP-100,2013-05-21 18:27:00,
2013-05-21 14:32:00,80.0,69.0,29.98,NE,45,9.0,11.0,69,0.06,,,1.50,Rainwise IP-100,2013-05-21 18:32:00,
2013-05-21 14:37:00,79.0,68.5,29.98,East,90,6.0,11.0,70,0.06,,,1.50,Rainwise IP-100,2013-05-21 18:37:00,
2013-05-21 14:42:00,78.0,69.0,29.97,ESE,112,4.0,9.0,73,0.00,,,1.50,Rainwise IP-100,2013-05-21 18:42:00,
2013-05-21 14:48:00,78.0,68.5,29.96,SE,135,6.0,6.0,72,0.00,,,1.50,Rainwise IP-100,2013-05-21 18:48:00,
2013-05-21 14:53:00,78.0,69.7,29.96,NE,45,6.0,10.0,75,0.00,,,1.50,Rainwise IP-100,2013-05-21 18:53:00,
2013-05-21 14:58:00,78.0,71.0,29.96,ENE,67,2.0,11.0,78,0.00,,,1.50,Rainwise IP-100,2013-05-21 18:58:00,
2013-05-21 15:03:00,78.0,71.7,29.96,East,90,9.0,9.0,80,0.00,,,1.50,Rainwise IP-100,2013-05-21 19:03:00,
2013-05-21 15:08:00,77.0,71.0,29.96,SE,135,15.0,15.0,81,0.00,,,1.50,Rainwise IP-100,2013-05-21 19:08:00,
2013-05-21 15:13:00,76.0,71.0,29.95,East,90,7.0,15.0,84,0.00,,,1.50,Rainwise IP-100,2013-05-21 19:13:00,
2013-05-21 15:18:00,76.0,71.0,29.94,ESE,112,2.0,12.0,84,0.00,,,1.50,Rainwise IP-100,2013-05-21 19:18:00,
2013-05-21 15:24:00,77.0,71.7,29.94,SE,135,7.0,10.0,83,0.00,,,1.50,Rainwise IP-100,2013-05-21 19:24:00,
2013-05-21 15:29:00,77.0,72.0,29.94,East,90,0.0,9.0,84,0.00,,,1.50,Rainwise IP-100,2013-05-21 19:29:00,
2013-05-21 15:34:00,77.0,71.3,29.93,SSE,157,4.0,7.0,82,0.00,,,1.50,Rainwise IP-100,2013-05-21 19:34:00,
2013-05-21 15:39:00,78.0,71.3,29.93,ENE,67,5.0,9.0,79,0.00,,,1.50,Rainwise IP-100,2013-05-21 19:39:00,
2013-05-21 15:44:00,79.0,70.5,29.94,SE,135,7.0,14.0,75,0.00,,,1.50,Rainwise IP-100,2013-05-21 19:44:00,
2013-05-21 15:49:00,79.0,70.0,29.95,East,90,8.0,12.0,74,0.00,,,1.50,Rainwise IP-100,2013-05-21 19:49:00,
2013-05-21 15:54:00,79.0,70.0,29.95,East,90,9.0,13.0,74,0.00,,,1.50,Rainwise IP-100,2013-05-21 19:54:00,
2013-05-21 15:59:00,80.0,70.0,29.95,NE,45,8.0,13.0,72,0.00,,,1.50,Rainwise IP-100,2013-05-21 19:59:00,
2013-05-21 16:05:00,80.0,71.3,29.94,ESE,112,7.0,12.0,75,0.00,,,1.50,Rainwise IP-100,2013-05-21 20:05:00,
2013-05-21 16:10:00,80.0,71.0,29.94,NE,45,6.0,11.0,74,0.00,,,1.50,Rainwise IP-100,2013-05-21 20:10:00,
2013-05-21 16:15:00,80.0,71.3,29.95,SE,135,2.0,12.0,75,0.00,,,1.50,Rainwise IP-100,2013-05-21 20:15:00,
2013-05-21 16:20:00,80.0,71.0,29.95,ESE,112,3.0,10.0,74,0.00,,,1.50,Rainwise IP-100,2013-05-21 20:20:00,
2013-05-21 16:25:00,80.0,71.3,29.94,SSE,157,3.0,12.0,75,0.00,,,1.50,Rainwise IP-100,2013-05-21 20:25:00,
2013-05-21 16:30:00,80.0,71.0,29.95,ESE,112,5.0,11.0,74,0.00,,,1.50,Rainwise IP-100,2013-05-21 20:30:00,
2013-05-21 16:35:00,81.0,71.3,29.95,ENE,67,9.0,13.0,72,0.00,,,1.50,Rainwise IP-100,2013-05-21 20:35:00,
2013-05-21 16:41:00,80.0,71.0,29.95,South,180,2.0,11.0,74,0.00,,,1.50,Rainwise IP-100,2013-05-21 20:41:00,
2013-05-21 16:46:00,81.0,71.0,29.95,East,90,8.0,15.0,71,0.00,,,1.50,Rainwise IP-100,2013-05-21 20:46:00,
2013-05-21 16:51:00,81.0,70.0,29.95,ENE,67,6.0,13.0,69,0.00,,,1.50,Rainwise IP-100,2013-05-21 20:51:00,
2013-05-21 16:56:00,80.0,70.0,29.96,ENE,67,2.0,14.0,72,0.00,,,1.50,Rainwise IP-100,2013-05-21 20:56:00,
2013-05-21 17:01:00,80.0,70.5,29.95,SE,135,3.0,12.0,73,0.00,,,1.50,Rainwise IP-100,2013-05-21 21:01:00,
2013-05-21 17:06:00,80.0,69.7,29.94,East,90,7.0,11.0,71,0.00,,,1.50,Rainwise IP-100,2013-05-21 21:06:00,
2013-05-21 17:11:00,80.0,69.7,29.94,East,90,4.0,11.0,71,0.00,,,1.50,Rainwise IP-100,2013-05-21 21:11:00,
2013-05-21 17:16:00,79.0,70.0,29.95,East,90,6.0,15.0,74,0.00,,,1.50,Rainwise IP-100,2013-05-21 21:16:00,
2013-05-21 17:22:00,78.0,70.5,29.94,ESE,112,6.0,15.0,77,0.00,,,1.50,Rainwise IP-100,2013-05-21 21:22:00,
2013-05-21 17:27:00,78.0,71.0,29.94,ESE,112,1.0,13.0,78,0.00,,,1.50,Rainwise IP-100,2013-05-21 21:27:00,
2013-05-21 17:32:00,78.0,70.5,29.93,East,90,4.0,15.0,77,0.00,,,1.50,Rainwise IP-100,2013-05-21 21:32:00,
2013-05-21 17:37:00,78.0,70.0,29.93,SSE,157,9.0,12.0,76,0.00,,,1.50,Rainwise IP-100,2013-05-21 21:37:00,
2013-05-21 17:42:00,78.0,70.0,29.93,SE,135,7.0,13.0,76,0.00,,,1.50,Rainwise IP-100,2013-05-21 21:42:00,
2013-05-21 17:47:00,78.0,69.7,29.92,East,90,6.0,14.0,75,0.00,,,1.50,Rainwise IP-100,2013-05-21 21:47:00,
2013-05-21 17:52:00,78.0,70.0,29.92,SSE,157,7.0,11.0,76,0.00,,,1.50,Rainwise IP-100,2013-05-21 21:52:00,
2013-05-21 17:58:00,77.0,70.0,29.92,SSE,157,5.0,13.0,79,0.00,,,1.50,Rainwise IP-100,2013-05-21 21:58:00,
2013-05-21 18:03:00,77.0,70.5,29.92,ESE,112,6.0,15.0,80,0.00,,,1.50,Rainwise IP-100,2013-05-21 22:03:00,
2013-05-21 18:08:00,77.0,70.0,29.92,SE,135,6.0,17.0,79,0.00,,,1.50,Rainwise IP-100,2013-05-21 22:08:00,
2013-05-21 18:13:00,77.0,70.0,29.93,East,90,6.0,12.0,79,0.00,,,1.50,Rainwise IP-100,2013-05-21 22:13:00,
2013-05-21 18:18:00,77.0,69.7,29.93,NE,45,3.0,13.0,78,0.00,,,1.50,Rainwise IP-100,2013-05-21 22:18:00,
2013-05-21 18:23:00,77.0,69.0,29.93,East,90,3.0,13.0,76,0.00,,,1.50,Rainwise IP-100,2013-05-21 22:23:00,
2013-05-21 18:28:00,77.0,69.0,29.93,East,90,3.0,12.0,76,0.00,,,1.50,Rainwise IP-100,2013-05-21 22:28:00,
2013-05-21 18:33:00,77.0,69.3,29.93,ESE,112,5.0,10.0,77,0.00,,,1.50,Rainwise IP-100,2013-05-21 22:33:00,
2013-05-21 18:39:00,77.0,69.3,29.94,East,90,6.0,12.0,77,0.00,,,1.50,Rainwise IP-100,2013-05-21 22:39:00,
2013-05-21 18:44:00,77.0,69.0,29.94,East,90,3.0,12.0,76,0.00,,,1.50,Rainwise IP-100,2013-05-21 22:44:00,
2013-05-21 18:49:00,77.0,69.0,29.94,SE,135,0.0,10.0,76,0.00,,,1.50,Rainwise IP-100,2013-05-21 22:49:00,
2013-05-21 18:54:00,77.0,69.0,29.94,South,180,1.0,14.0,76,0.00,,,1.50,Rainwise IP-100,2013-05-21 22:54:00,
2013-05-21 18:59:00,77.0,69.0,29.94,East,90,5.0,10.0,76,0.00,,,1.50,Rainwise IP-100,2013-05-21 22:59:00,
2013-05-21 19:04:00,77.0,69.3,29.94,ENE,67,7.0,10.0,77,0.00,,,1.50,Rainwise IP-100,2013-05-21 23:04:00,
2013-05-21 19:09:00,77.0,69.3,29.95,SE,135,2.0,8.0,77,0.00,,,1.50,Rainwise IP-100,2013-05-21 23:09:00,
2013-05-21 19:15:00,77.0,69.0,29.94,East,90,9.0,12.0,76,0.00,,,1.50,Rainwise IP-100,2013-05-21 23:15:00,
2013-05-21 19:20:00,77.0,69.7,29.95,SSE,157,2.0,10.0,78,0.00,,,1.50,Rainwise IP-100,2013-05-21 23:20:00,
2013-05-21 19:25:00,77.0,70.0,29.95,East,90,7.0,8.0,79,0.00,,,1.50,Rainwise IP-100,2013-05-21 23:25:00,
2013-05-21 19:30:00,77.0,70.0,29.95,SE,135,4.0,10.0,79,0.00,,,1.50,Rainwise IP-100,2013-05-21 23:30:00,
2013-05-21 19:35:00,77.0,70.0,29.95,ESE,112,4.0,10.0,79,0.00,,,1.50,Rainwise IP-100,2013-05-21 23:35:00,
2013-05-21 19:40:00,77.0,70.0,29.95,SSE,157,5.0,10.0,79,0.00,,,1.50,Rainwise IP-100,2013-05-21 23:40:00,
2013-05-21 19:45:00,77.0,70.0,29.95,East,90,3.0,15.0,79,0.00,,,1.50,Rainwise IP-100,2013-05-21 23:45:00,
2013-05-21 19:50:00,77.0,71.0,29.95,East,90,6.0,11.0,81,0.00,,,1.50,Rainwise IP-100,2013-05-21 23:50:00,
2013-05-21 19:56:00,77.0,71.0,29.95,ENE,67,3.0,12.0,81,0.00,,,1.50,Rainwise IP-100,2013-05-21 23:56:00,
2013-05-21 20:01:00,76.0,70.0,29.95,SE,135,7.0,10.0,82,0.00,,,1.50,Rainwise IP-100,2013-05-22 00:01:00,
2013-05-21 20:06:00,76.0,70.5,29.95,East,90,4.0,12.0,83,0.00,,,1.50,Rainwise IP-100,2013-05-22 00:06:00,
2013-05-21 20:11:00,76.0,70.5,29.95,SSE,157,5.0,9.0,83,0.00,,,1.50,Rainwise IP-100,2013-05-22 00:11:00,
2013-05-21 20:16:00,76.0,70.0,29.95,East,90,6.0,10.0,82,0.00,,,1.50,Rainwise IP-100,2013-05-22 00:16:00,
2013-05-21 20:21:00,76.0,70.0,29.94,ESE,112,6.0,12.0,82,0.00,,,1.50,Rainwise IP-100,2013-05-22 00:21:00,
2013-05-21 20:26:00,76.0,70.5,29.94,NE,45,7.0,11.0,83,0.00,,,1.50,Rainwise IP-100,2013-05-22 00:26:00,
2013-05-21 20:32:00,77.0,71.7,29.94,East,90,8.0,9.0,83,0.00,,,1.50,Rainwise IP-100,2013-05-22 00:32:00,
2013-05-21 20:37:00,77.0,71.7,29.94,East,90,2.0,9.0,83,0.00,,,1.50,Rainwise IP-100,2013-05-22 00:37:00,
2013-05-21 20:42:00,77.0,71.7,29.95,SE,135,4.0,11.0,83,0.00,,,1.50,Rainwise IP-100,2013-05-22 00:42:00,
2013-05-21 20:47:00,76.0,70.5,29.95,SE,135,6.0,11.0,83,0.00,,,1.50,Rainwise IP-100,2013-05-22 00:47:00,
2013-05-21 20:52:00,76.0,70.5,29.95,SE,135,6.0,14.0,83,0.00,,,1.50,Rainwise IP-100,2013-05-22 00:52:00,
2013-05-21 20:57:00,76.0,70.5,29.95,SE,135,9.0,15.0,83,0.00,,,1.50,Rainwise IP-100,2013-05-22 00:57:00,
2013-05-21 21:02:00,77.0,71.7,29.95,East,90,9.0,12.0,83,0.00,,,1.50,Rainwise IP-100,2013-05-22 01:02:00,
2013-05-21 21:07:00,76.0,69.7,29.95,SSE,157,9.0,14.0,81,0.00,,,1.50,Rainwise IP-100,2013-05-22 01:07:00,
2013-05-21 21:13:00,76.0,71.0,29.95,SE,135,4.0,14.0,84,0.00,,,1.50,Rainwise IP-100,2013-05-22 01:13:00,
2013-05-21 21:18:00,76.0,70.5,29.94,East,90,6.0,12.0,83,0.00,,,1.50,Rainwise IP-100,2013-05-22 01:18:00,
2013-05-21 21:23:00,76.0,71.0,29.94,SE,135,8.0,13.0,84,0.00,,,1.50,Rainwise IP-100,2013-05-22 01:23:00,
2013-05-21 21:28:00,76.0,71.3,29.94,SE,135,8.0,11.0,85,0.00,,,1.50,Rainwise IP-100,2013-05-22 01:28:00,
2013-05-21 21:33:00,76.0,71.3,29.94,ESE,112,7.0,12.0,85,0.00,,,1.50,Rainwise IP-100,2013-05-22 01:33:00,
2013-05-21 21:38:00,76.0,71.3,29.94,NE,45,7.0,10.0,85,0.00,,,1.50,Rainwise IP-100,2013-05-22 01:38:00,
2013-05-21 21:43:00,76.0,71.3,29.94,SE,135,8.0,14.0,85,0.00,,,1.50,Rainwise IP-100,2013-05-22 01:43:00,
2013-05-21 21:49:00,76.0,71.3,29.94,SSE,157,4.0,10.0,85,0.00,,,1.50,Rainwise IP-100,2013-05-22 01:49:00,
2013-05-21 21:54:00,76.0,71.3,29.93,ESE,112,9.0,13.0,85,0.00,,,1.50,Rainwise IP-100,2013-05-22 01:54:00,
2013-05-21 21:59:00,76.0,71.3,29.93,ESE,112,17.0,17.0,85,0.00,,,1.50,Rainwise IP-100,2013-05-22 01:59:00,
2013-05-21 22:04:00,76.0,70.5,29.93,SSE,157,9.0,16.0,83,0.00,,,1.50,Rainwise IP-100,2013-05-22 02:04:00,
2013-05-21 22:09:00,76.0,69.7,29.92,SE,135,3.0,13.0,81,0.00,,,1.50,Rainwise IP-100,2013-05-22 02:09:00,
2013-05-21 22:14:00,76.0,69.0,29.93,SE,135,10.0,17.0,79,0.00,,,1.50,Rainwise IP-100,2013-05-22 02:14:00,
2013-05-21 22:19:00,76.0,68.0,29.93,ESE,112,9.0,18.0,77,0.00,,,1.50,Rainwise IP-100,2013-05-22 02:19:00,
2013-05-21 22:24:00,76.0,69.0,29.93,ESE,112,13.0,16.0,79,0.00,,,1.50,Rainwise IP-100,2013-05-22 02:24:00,
2013-05-21 22:30:00,76.0,69.3,29.93,ESE,112,13.0,16.0,80,0.00,,,1.50,Rainwise IP-100,2013-05-22 02:30:00,
2013-05-21 22:35:00,76.0,70.0,29.93,SSE,157,5.0,16.0,82,0.00,,,1.50,Rainwise IP-100,2013-05-22 02:35:00,
2013-05-21 22:40:00,76.0,70.5,29.94,ESE,112,5.0,14.0,83,0.00,,,1.50,Rainwise IP-100,2013-05-22 02:40:00,
2013-05-21 22:45:00,76.0,70.5,29.94,East,90,13.0,13.0,83,0.00,,,1.50,Rainwise IP-100,2013-05-22 02:45:00,
2013-05-21 22:50:00,76.0,70.5,29.94,South,180,6.0,15.0,83,0.00,,,1.50,Rainwise IP-100,2013-05-22 02:50:00,
2013-05-21 22:55:00,76.0,70.5,29.94,SE,135,6.0,12.0,83,0.00,,,1.50,Rainwise IP-100,2013-05-22 02:55:00,
2013-05-21 23:00:00,76.0,69.7,29.94,SE,135,9.0,15.0,81,0.00,,,1.50,Rainwise IP-100,2013-05-22 03:00:00,
2013-05-21 23:06:00,76.0,70.5,29.94,SE,135,6.0,13.0,83,0.00,,,1.50,Rainwise IP-100,2013-05-22 03:06:00,
2013-05-21 23:11:00,76.0,70.5,29.94,ESE,112,9.0,12.0,83,0.00,,,1.50,Rainwise IP-100,2013-05-22 03:11:00,
2013-05-21 23:16:00,76.0,70.5,29.94,ESE,112,10.0,15.0,83,0.00,,,1.50,Rainwise IP-100,2013-05-22 03:16:00,
2013-05-21 23:21:00,76.0,70.5,29.94,SE,135,3.0,13.0,83,0.00,,,1.50,Rainwise IP-100,2013-05-22 03:21:00,
2013-05-21 23:26:00,76.0,70.5,29.94,ESE,112,7.0,13.0,83,0.00,,,1.50,Rainwise IP-100,2013-05-22 03:26:00,
2013-05-21 23:31:00,76.0,70.5,29.94,East,90,6.0,12.0,83,0.00,,,1.50,Rainwise IP-100,2013-05-22 03:31:00,
2013-05-21 23:36:00,76.0,71.0,29.94,SE,135,9.0,12.0,84,0.00,,,1.50,Rainwise IP-100,2013-05-22 03:36:00,
2013-05-21 23:41:00,76.0,70.5,29.94,SE,135,7.0,11.0,83,0.00,,,1.50,Rainwise IP-100,2013-05-22 03:41:00,
2013-05-21 23:47:00,76.0,69.7,29.94,ESE,112,10.0,12.0,81,0.00,,,1.50,Rainwise IP-100,2013-05-22 03:47:00,
2013-05-21 23:52:00,76.0,69.7,29.94,SE,135,10.0,13.0,81,0.00,,,1.50,Rainwise IP-100,2013-05-22 03:52:00,
2013-05-21 23:57:00,76.0,69.7,29.94,ESE,112,9.0,13.0,81,0.00,,,1.50,Rainwise IP-100,2013-05-22 03:57:00,